Accueil
METAR-TAF:

METAR-TAF

Aéroports :

Fayetteville, Caroline du Nord, États-Unis

latitude: 34-59-22N, longitude: 078-52-48W, altitude: 57 m

Observation

Le bulletin a été fait il y a 42 minutes, à 11:53 UTC
Vent 5 kt de nord
Température 9°C
Humidité 66%
Pression 1015 hPa
Visibilité: 16.1 km
Ciel clair

METAR: KFAY 041153Z 01005KT 10SM CLR 09/03 A2996 RMK AO2 SLP139 T00940028 10144 20072 53017

Heure: 08:35 (12:35 UTC)

Prévision

Le bulletin a été fait il y a 1 heure et 0 minutes, à 11:35 UTC
Prévision valable du 04 à 12 UTC au 05 à 12 UTC
Vent 4 kt de nord
Visibilité: 10 km
Ciel clair
A partir de 05 à 0000 UTC
Vent 5 kt de est/nord-est
Visibilité: 10 km
Nuages épars à une hauteur de 25000 ft

TAF: KFAY 041135Z 0412/0512 35004KT P6SM SKC FM050000 06005KT P6SM SCT250

Observations et prévisions météorologiques de plus de 4000 aéroports (messages METAR et TAF).

Les stations disponibles sont représentées par des disques jaunes et rouges sur la carte.

Passer la souris dessus pour voir le nom de la station.

Cliquer dessus pour voir les observations et prévisions météorologiques.

Pour changer de carte: cliquez sur les boutons verts avec une croix noire pour zoomer, sur le bouton vert avec un tiret pour effectuer un zoom arrière, ou sur les flèches vertes pour les cartes adjacentes.


METAR-TAF: